Terminal Aerodrome Forecast
Issued by NWS

Home | Current Version | Previous Version | Text Only | Print | Product List | Glossary Off
Versions: 1 2 3 4 5 6 7 8 9 10 11 12 13 14 15 16

000
FTUS43 KIWX 270500
TAFSBN
TAF
KSBN 270536Z 2706/2806 32005KT 5SM BR BKN100
      TEMPO 2706/2710 2SM BR SCT002
     FM271400 01007KT P6SM SCT040 BKN100=

USA.gov is the U.S. government's official web portal to all federal, state and local government web resources and services.